createdAt,value
2022-08-05T04:00:37.824Z,12.73
2022-08-05T04:03:15.003Z,12.25
2022-08-05T04:06:00.401Z,12.52
2022-08-05T04:08:36.438Z,13.23
2022-08-05T04:11:09.966Z,13.20
2022-08-05T04:13:51.358Z,12.90
2022-08-05T04:16:32.718Z,13.27
2022-08-05T04:19:04.550Z,14.70
2022-08-05T04:22:08.133Z,15.50
2022-08-05T04:24:34.041Z,14.57
2022-08-05T04:27:05.873Z,14.82
2022-08-05T04:29:39.265Z,14.90
2022-08-05T04:32:12.407Z,16.83
2022-08-05T04:34:44.364Z,18.08
2022-08-05T04:37:16.624Z,17.08
2022-08-05T04:39:52.894Z,15.52
2022-08-05T04:42:27.707Z,19.38
2022-08-05T04:44:59.778Z,18.08
2022-08-05T04:47:38.450Z,18.23
2022-08-05T04:50:11.457Z,18.20
2022-08-05T04:52:43.417Z,18.73
2022-08-05T04:55:16.566Z,17.65
2022-08-05T04:57:54.427Z,15.55
2022-08-05T05:00:26.357Z,17.50
2022-08-05T05:03:03.670Z,16.70
2022-08-05T05:06:36.656Z,17.10
2022-08-05T05:08:30.114Z,18.25
2022-08-05T05:11:02.223Z,19.25
2022-08-05T05:13:43.280Z,20.00
2022-08-05T05:16:15.562Z,21.67
2022-08-05T05:19:17.592Z,23.88
2022-08-05T05:21:46.480Z,23.67
2022-08-05T05:24:18.582Z,22.52
2022-08-05T05:26:51.932Z,24.92
2022-08-05T05:29:24.523Z,24.30
2022-08-05T05:32:16.180Z,27.27
2022-08-05T05:34:52.462Z,27.90
2022-08-05T05:37:24.491Z,27.70
2022-08-05T05:40:10.412Z,28.08
2022-08-05T05:42:47.114Z,27.48
2022-08-05T05:45:19.418Z,28.15
2022-08-05T05:48:05.697Z,29.45
2022-08-05T05:50:44.076Z,30.77
2022-08-05T05:53:21.578Z,28.83
2022-08-05T05:56:00.875Z,28.50
2022-08-05T05:58:35.124Z,28.98
2022-08-05T06:01:12.798Z,30.45
2022-08-05T06:04:00.552Z,29.38
2022-08-05T06:06:41.993Z,30.85
2022-08-05T06:09:17.358Z,31.92
2022-08-05T06:11:59.350Z,30.42
2022-08-05T06:14:34.801Z,31.15
2022-08-05T06:17:24.332Z,31.33
2022-08-05T06:19:59.518Z,31.10
2022-08-05T06:22:34.025Z,31.70
2022-08-05T06:25:25.248Z,28.88
2022-08-05T06:28:10.839Z,30.45
2022-08-05T06:30:44.637Z,30.30
2022-08-05T06:33:19.253Z,29.23
2022-08-05T06:36:03.582Z,31.85
2022-08-05T06:38:43.061Z,34.63
2022-08-05T06:41:19.198Z,35.47
2022-08-05T06:44:00.152Z,34.80
2022-08-05T06:46:32.616Z,34.35
2022-08-05T06:49:08.283Z,35.42
2022-08-05T06:51:40.885Z,34.85
2022-08-05T06:54:19.268Z,33.63
2022-08-05T06:57:56.695Z,34.72
2022-08-05T06:59:57.902Z,33.00
2022-08-05T07:02:30.294Z,32.45
2022-08-05T07:05:02.319Z,29.65
2022-08-05T07:07:35.514Z,28.27
2022-08-05T07:10:16.781Z,29.33
2022-08-05T07:12:49.376Z,27.27
2022-08-05T07:15:34.752Z,27.98
2022-08-05T07:18:20.400Z,29.02
2022-08-05T07:21:04.770Z,28.45
2022-08-05T07:23:40.620Z,28.02
2022-08-05T07:26:25.662Z,31.35
2022-08-05T07:28:57.925Z,32.13
2022-08-05T07:31:53.980Z,33.13
2022-08-05T07:34:28.475Z,33.85
2022-08-05T07:37:00.782Z,38.78
2022-08-05T07:40:26.340Z,37.63
2022-08-05T07:42:31.769Z,34.83
2022-08-05T07:45:09.425Z,36.35
2022-08-05T07:47:42.986Z,38.95
2022-08-05T07:50:17.638Z,42.00
2022-08-05T07:52:49.694Z,43.20
2022-08-05T07:56:05.903Z,44.53
2022-08-05T07:58:54.418Z,45.67
2022-08-05T08:01:12.093Z,45.97
2022-08-05T08:03:45.093Z,45.20
2022-08-05T08:06:17.239Z,41.05
2022-08-05T08:08:49.371Z,43.95
2022-08-05T08:11:27.788Z,44.15
2022-08-05T08:14:18.291Z,49.63
2022-08-05T08:16:53.503Z,50.47
2022-08-05T08:20:22.150Z,49.10
2022-08-05T08:22:17.844Z,50.00
2022-08-05T08:24:51.498Z,51.67
2022-08-05T08:27:35.722Z,49.47
2022-08-05T08:30:18.899Z,49.80
2022-08-05T08:33:08.107Z,48.65
2022-08-05T08:35:41.403Z,49.05
2022-08-05T08:38:35.672Z,47.63
2022-08-05T08:41:08.836Z,45.15
2022-08-05T08:45:17.685Z,45.28
2022-08-05T08:46:34.311Z,45.78
2022-08-05T08:50:22.826Z,47.00
2022-08-05T08:52:03.048Z,45.25
2022-08-05T08:54:37.792Z,43.53
2022-08-05T08:57:14.308Z,43.10
2022-08-05T08:59:49.857Z,41.97
2022-08-05T09:02:26.898Z,40.28
2022-08-05T09:05:17.267Z,36.85
2022-08-05T09:07:57.293Z,30.80
2022-08-05T09:10:30.195Z,28.92
2022-08-05T09:13:05.201Z,27.50
2022-08-05T09:15:38.376Z,27.13
2022-08-05T09:18:13.594Z,27.17
2022-08-05T09:20:45.727Z,25.08
2022-08-05T09:23:21.790Z,22.73
2022-08-05T09:26:05.982Z,20.45
2022-08-05T09:28:39.069Z,19.77
2022-08-05T09:31:43.197Z,19.60
2022-08-05T09:34:06.022Z,16.98
2022-08-05T09:36:38.765Z,16.70
2022-08-05T09:39:45.663Z,16.73
2022-08-05T09:42:24.166Z,17.73
2022-08-05T09:46:04.858Z,17.40
2022-08-05T09:47:58.228Z,17.65
2022-08-05T09:50:44.464Z,17.58
2022-08-05T09:53:25.803Z,18.20
2022-08-05T09:56:04.830Z,16.98
2022-08-05T09:58:56.047Z,17.25
2022-08-05T10:01:32.607Z,17.92
2022-08-05T10:04:10.622Z,18.15
2022-08-05T10:06:59.009Z,18.75
2022-08-05T10:09:45.323Z,18.17
2022-08-05T10:12:30.530Z,17.77
2022-08-05T10:15:20.330Z,17.23
2022-08-05T10:18:09.309Z,16.38
2022-08-05T10:20:42.420Z,17.02
2022-08-05T10:23:34.117Z,15.60
2022-08-05T10:26:13.769Z,13.75
2022-08-05T10:28:46.929Z,13.45
2022-08-05T10:32:49.305Z,14.45
2022-08-05T10:34:11.103Z,11.65
2022-08-05T10:36:43.131Z,11.63
2022-08-05T10:39:25.020Z,12.32
2022-08-05T10:42:11.430Z,12.43
2022-08-05T10:44:44.706Z,10.75
2022-08-05T10:47:25.952Z,8.82
2022-08-05T10:50:31.834Z,7.70
2022-08-05T10:52:58.518Z,8.35
2022-08-05T10:55:38.462Z,7.38
2022-08-05T10:58:41.035Z,6.22
2022-08-05T11:01:28.067Z,6.38
2022-08-05T11:04:07.931Z,5.57
2022-08-05T11:06:57.741Z,4.97
2022-08-05T11:09:45.211Z,4.93
2022-08-05T11:12:33.732Z,4.60
2022-08-05T11:15:11.564Z,4.45
2022-08-05T11:17:58.768Z,4.68
2022-08-05T11:20:39.237Z,4.45
2022-08-05T11:23:33.600Z,4.75
2022-08-05T11:26:28.311Z,4.68
2022-08-05T11:29:11.617Z,4.47
2022-08-05T11:31:56.417Z,5.10
2022-08-05T11:34:38.775Z,5.03
2022-08-05T11:38:28.947Z,4.22
2022-08-05T11:40:04.503Z,3.35
2022-08-05T11:42:40.252Z,3.75
2022-08-05T11:45:23.176Z,2.83
2022-08-05T11:48:09.711Z,2.92
2022-08-05T11:50:43.682Z,3.38
2022-08-05T11:53:17.976Z,2.85
2022-08-05T11:55:56.217Z,3.03
2022-08-05T11:58:29.081Z,2.53
2022-08-05T12:01:04.600Z,2.63
2022-08-05T12:03:56.131Z,2.45
2022-08-05T12:06:28.433Z,2.33
2022-08-05T12:09:00.479Z,2.40
2022-08-05T12:11:40.157Z,2.35
2022-08-05T12:14:13.822Z,2.40
2022-08-05T12:16:46.459Z,2.42
2022-08-05T12:20:16.883Z,2.45
2022-08-05T12:22:12.871Z,2.33
2022-08-05T12:24:51.976Z,2.10
2022-08-05T12:27:25.734Z,3.15
2022-08-05T12:30:05.862Z,2.83
2022-08-05T12:32:44.077Z,2.30
2022-08-05T12:35:24.052Z,2.50
2022-08-05T12:38:10.173Z,2.50
2022-08-05T12:40:43.536Z,2.88
2022-08-05T12:43:21.064Z,2.65
2022-08-05T12:45:53.787Z,2.80
2022-08-05T12:48:32.750Z,2.90
2022-08-05T12:52:09.868Z,2.63
2022-08-05T12:54:16.703Z,3.40
2022-08-05T12:56:50.902Z,3.60
2022-08-05T12:59:46.887Z,3.42
2022-08-05T13:02:20.095Z,3.90
2022-08-05T13:04:59.293Z,3.50
2022-08-05T13:07:57.623Z,3.30
2022-08-05T13:10:24.829Z,3.65
2022-08-05T13:12:58.783Z,3.30
2022-08-05T13:15:41.529Z,3.80
2022-08-05T13:18:23.976Z,3.85
2022-08-05T13:20:56.257Z,4.35
2022-08-05T13:23:29.779Z,4.13
2022-08-05T13:26:02.103Z,4.07
2022-08-05T13:28:34.201Z,3.95
2022-08-05T13:31:16.116Z,3.67
2022-08-05T13:34:22.810Z,4.07
2022-08-05T13:36:40.311Z,4.70
2022-08-05T13:40:13.569Z,4.50
2022-08-05T13:42:05.993Z,4.50
2022-08-05T13:44:40.951Z,4.68
2022-08-05T13:47:35.783Z,4.20
2022-08-05T13:50:14.818Z,4.38
2022-08-05T13:52:49.871Z,3.72
2022-08-05T13:55:41.681Z,4.03
2022-08-05T13:58:30.428Z,3.70
2022-08-05T14:01:03.230Z,3.67
2022-08-05T14:03:36.168Z,4.32
2022-08-05T14:06:26.716Z,4.20
2022-08-05T14:08:59.504Z,4.25
2022-08-05T14:11:33.081Z,4.15
2022-08-05T14:14:29.607Z,3.80
2022-08-05T14:17:05.795Z,3.75
2022-08-05T14:19:55.291Z,3.58
2022-08-05T14:22:30.264Z,3.20
2022-08-05T14:25:21.739Z,3.35
2022-08-05T14:27:55.763Z,3.50
2022-08-05T14:30:28.341Z,3.70
2022-08-05T14:33:01.915Z,2.90
2022-08-05T14:35:37.309Z,3.53
2022-08-05T14:38:32.267Z,2.90
2022-08-05T14:41:07.684Z,2.17
2022-08-05T14:44:00.258Z,2.20
2022-08-05T14:46:35.380Z,2.00
2022-08-05T14:49:08.164Z,1.70
2022-08-05T14:51:43.002Z,1.58
2022-08-05T14:54:27.746Z,1.60
2022-08-05T14:57:05.418Z,1.25
2022-08-05T14:59:47.118Z,1.50
2022-08-05T15:02:21.290Z,1.45
2022-08-05T15:04:53.376Z,1.45
2022-08-05T15:08:10.844Z,1.70
2022-08-05T15:10:17.478Z,1.50
2022-08-05T15:13:04.186Z,1.52
2022-08-05T15:15:55.898Z,1.23
2022-08-05T15:18:28.470Z,1.40
2022-08-05T15:21:07.658Z,1.75
2022-08-05T15:23:40.121Z,1.67
2022-08-05T15:26:12.340Z,1.45
2022-08-05T15:28:44.432Z,1.88
2022-08-05T15:31:17.956Z,1.60
2022-08-05T15:34:04.706Z,2.15
2022-08-05T15:36:38.146Z,1.45
2022-08-05T15:41:00.921Z,1.70
2022-08-05T15:42:02.655Z,1.50
2022-08-05T15:44:54.541Z,1.55
2022-08-05T15:47:27.973Z,1.58
2022-08-05T15:50:01.452Z,1.88
2022-08-05T15:52:53.738Z,1.70
2022-08-05T15:56:01.380Z,1.73
2022-08-05T15:58:17.639Z,1.60
2022-08-05T16:00:57.049Z,1.50
2022-08-05T16:03:40.848Z,1.60
2022-08-05T16:06:13.092Z,1.90
2022-08-05T16:08:45.154Z,1.77
2022-08-05T16:11:17.353Z,2.10
2022-08-05T16:13:49.452Z,1.70
2022-08-05T16:16:21.505Z,2.00
2022-08-05T16:18:58.958Z,1.92
2022-08-05T16:21:58.563Z,2.10
2022-08-05T16:24:41.021Z,1.83
2022-08-05T16:27:16.476Z,1.60
2022-08-05T16:29:50.827Z,2.70
2022-08-05T16:32:29.519Z,2.10
2022-08-05T16:35:03.228Z,1.90
2022-08-05T16:38:15.435Z,1.92
2022-08-05T16:40:29.412Z,1.73
2022-08-05T16:43:01.708Z,1.60
2022-08-05T16:46:05.930Z,1.70
2022-08-05T16:48:35.362Z,1.38
2022-08-05T16:51:10.868Z,1.90
2022-08-05T16:54:05.124Z,1.50
2022-08-05T16:56:35.510Z,2.13
2022-08-05T16:59:08.764Z,1.58
2022-08-05T17:01:54.241Z,1.73
2022-08-05T17:04:28.613Z,1.58
2022-08-05T17:07:03.357Z,1.23
2022-08-05T17:09:59.429Z,1.55
2022-08-05T17:12:50.979Z,1.50
2022-08-05T17:15:23.625Z,1.23
2022-08-05T17:18:01.493Z,1.15
2022-08-05T17:20:33.531Z,1.02
2022-08-05T17:23:06.906Z,1.20
2022-08-05T17:25:40.040Z,1.00
2022-08-05T17:28:15.479Z,1.30
2022-08-05T17:30:52.162Z,1.17
2022-08-05T17:33:24.423Z,1.30
2022-08-05T17:36:08.423Z,1.17
2022-08-05T17:38:49.847Z,1.00
2022-08-05T17:41:22.919Z,1.10
2022-08-05T17:44:13.933Z,1.15
2022-08-05T17:46:48.608Z,1.15
2022-08-05T17:49:21.687Z,1.20
2022-08-05T17:51:55.892Z,1.10
2022-08-05T17:54:29.264Z,1.08
2022-08-05T17:57:01.323Z,1.50
2022-08-05T17:59:34.487Z,1.27
2022-08-05T18:02:10.786Z,0.80
2022-08-05T18:04:53.360Z,1.15
2022-08-05T18:07:40.972Z,0.90
2022-08-05T18:10:21.226Z,0.98
2022-08-05T18:12:53.584Z,1.02
2022-08-05T18:15:25.670Z,1.00
2022-08-05T18:18:01.212Z,0.85
2022-08-05T18:20:34.849Z,0.80
2022-08-05T18:23:12.001Z,0.80
2022-08-05T18:25:45.811Z,0.85
2022-08-05T18:28:17.889Z,0.95
2022-08-05T18:30:54.151Z,0.90
2022-08-05T18:33:27.044Z,1.20
2022-08-05T18:36:15.832Z,1.35
2022-08-05T18:38:47.942Z,0.82
2022-08-05T18:41:57.469Z,1.17
2022-08-05T18:44:13.544Z,1.20
2022-08-05T18:47:05.555Z,1.05
2022-08-05T18:49:57.366Z,0.90
2022-08-05T18:52:33.188Z,0.90
2022-08-05T18:55:06.568Z,0.90
2022-08-05T18:57:53.072Z,1.10
2022-08-05T19:00:29.030Z,1.20
2022-08-05T19:03:04.069Z,1.30
2022-08-05T19:06:11.727Z,1.08
2022-08-05T19:08:30.726Z,1.20
2022-08-05T19:11:05.062Z,1.55
2022-08-05T19:13:40.733Z,1.25
2022-08-05T19:16:22.160Z,1.38
2022-08-05T19:18:57.593Z,1.42
2022-08-05T19:21:34.804Z,1.00
2022-08-05T19:24:12.798Z,1.10
2022-08-05T19:26:55.517Z,1.10
2022-08-05T19:29:35.826Z,1.17
2022-08-05T19:32:11.683Z,1.00
2022-08-05T19:34:54.913Z,1.05
2022-08-05T19:37:34.939Z,1.00
2022-08-05T19:40:19.556Z,1.30
2022-08-05T19:43:00.820Z,1.15
2022-08-05T19:45:39.063Z,1.00
2022-08-05T19:48:26.606Z,1.23
2022-08-05T19:50:58.634Z,1.00
2022-08-05T19:54:05.174Z,1.23
2022-08-05T19:56:32.492Z,1.25
2022-08-05T19:59:53.980Z,1.77
2022-08-05T20:02:00.296Z,1.33
2022-08-05T20:04:32.345Z,1.10
2022-08-05T20:07:10.424Z,1.23
2022-08-05T20:09:53.835Z,1.20
2022-08-05T20:12:27.655Z,1.15
2022-08-05T20:14:59.916Z,1.20
2022-08-05T20:17:36.417Z,1.23
2022-08-05T20:20:11.049Z,1.20
2022-08-05T20:22:44.157Z,1.00
2022-08-05T20:25:18.989Z,1.23
2022-08-05T20:27:57.542Z,1.00
2022-08-05T20:30:29.683Z,1.17
2022-08-05T20:33:03.717Z,1.38
2022-08-05T20:35:40.690Z,1.23
2022-08-05T20:38:26.715Z,1.20
2022-08-05T20:40:59.249Z,1.20
2022-08-05T20:43:57.469Z,1.10
2022-08-05T20:46:24.947Z,1.60
2022-08-05T20:48:58.639Z,1.30
2022-08-05T20:51:30.681Z,1.30
2022-08-05T20:54:04.442Z,4.18
2022-08-05T20:56:41.924Z,1.20
2022-08-05T20:59:19.192Z,1.20
2022-08-05T21:01:58.452Z,2.15
2022-08-05T21:04:31.985Z,1.20
2022-08-05T21:07:04.059Z,1.30
2022-08-05T21:09:36.420Z,1.20
2022-08-05T21:12:11.830Z,1.60
2022-08-05T21:14:44.176Z,1.40
2022-08-05T21:17:16.913Z,1.33
2022-08-05T21:19:50.587Z,1.52
2022-08-05T21:22:23.879Z,1.63
2022-08-05T21:24:55.749Z,1.95
2022-08-05T21:27:27.642Z,1.23
2022-08-05T21:30:17.368Z,1.17
2022-08-05T21:32:49.477Z,1.45
2022-08-05T21:35:29.971Z,1.33
2022-08-05T21:38:15.159Z,1.20
2022-08-05T21:40:48.776Z,1.42
2022-08-05T21:43:24.428Z,1.42
2022-08-05T21:46:00.262Z,2.00
2022-08-05T21:48:32.222Z,3.10
2022-08-05T21:51:25.320Z,1.77
2022-08-05T21:53:59.603Z,1.65
2022-08-05T21:56:35.370Z,1.70
2022-08-05T21:59:24.191Z,1.70
